Time;durP1;ratioP1;P1;durP2;ratioP2;P2;SDS_P1;SDS_P2;PMS_P1;PMS_P2;Temp;Humidity;BMP_temperature;BMP_pressure;BME280_temperature;BME280_humidity;BME280_pressure;Samples;Min_cycle;Max_cycle;Signal;HPM_P1;HPM_P2
2022/09/17 00:01:51;;;;;;;18.98;2.72;;;11.10;99.90;;;;;;5019367;28;20056;-50
2022/09/17 00:04:17;;;;;;;15.10;3.83;;;11.10;99.90;;;;;;5021638;28;20216;-50
2022/09/17 00:06:42;;;;;;;14.48;3.22;;;11.10;99.90;;;;;;5021083;28;20104;-50
2022/09/17 00:09:09;;;;;;;23.30;3.47;;;11.20;99.90;;;;;;5019223;28;21464;-51
2022/09/17 00:11:38;;;;;;;15.85;2.78;;;11.20;99.90;;;;;;5021172;28;20108;-52
2022/09/17 00:14:06;;;;;;;12.05;3.30;;;11.10;99.90;;;;;;5002269;28;20030;-51
2022/09/17 00:16:41;;;;;;;15.73;2.88;;;11.20;99.90;;;;;;5021327;28;20022;-52
2022/09/17 00:19:09;;;;;;;16.00;2.90;;;11.20;99.90;;;;;;5020752;28;20026;-50
2022/09/17 00:21:35;;;;;;;13.55;2.85;;;11.20;99.90;;;;;;5021499;28;20025;-49
2022/09/17 00:24:04;;;;;;;15.23;3.05;;;11.20;99.90;;;;;;5013691;28;20411;-51
2022/09/17 00:26:31;;;;;;;20.83;3.05;;;11.10;99.90;;;;;;5003820;28;20030;-51
2022/09/17 00:28:58;;;;;;;15.65;2.97;;;11.10;99.90;;;;;;5020287;28;20064;-50
2022/09/17 00:31:25;;;;;;;23.75;3.58;;;11.10;99.90;;;;;;5014484;28;20028;-51
2022/09/17 00:33:51;;;;;;;12.80;3.00;;;11.10;99.90;;;;;;5021201;28;20025;-54
2022/09/17 00:36:19;;;;;;;13.23;3.60;;;11.10;99.90;;;;;;5021690;28;20116;-50
2022/09/17 00:38:48;;;;;;;18.88;2.67;;;11.10;99.90;;;;;;5021294;28;20018;-54
2022/09/17 00:41:13;;;;;;;14.27;2.47;;;11.10;99.90;;;;;;5017432;28;20061;-51
2022/09/17 00:43:56;;;;;;;15.32;3.47;;;11.10;99.90;;;;;;5022753;28;20033;-52
2022/09/17 00:46:36;;;;;;;12.80;2.05;;;11.00;99.90;;;;;;4997284;28;20068;-50
2022/09/17 00:49:09;;;;;;;11.63;2.80;;;11.00;99.90;;;;;;5024764;28;20018;-50
2022/09/17 00:51:40;;;;;;;12.23;3.15;;;11.00;99.90;;;;;;5017199;28;20022;-51
2022/09/17 00:54:08;;;;;;;16.00;3.22;;;10.90;99.90;;;;;;5025630;28;20116;-50
2022/09/17 00:56:38;;;;;;;12.70;3.17;;;10.90;99.90;;;;;;5017540;28;20030;-50
2022/09/17 00:59:04;;;;;;;18.65;3.15;;;10.90;99.90;;;;;;5017741;28;20041;-50
2022/09/17 01:01:30;;;;;;;11.80;2.63;;;10.90;99.90;;;;;;5019201;28;20026;-54
2022/09/17 01:03:56;;;;;;;12.40;3.08;;;10.90;99.90;;;;;;5016618;28;20033;-49
2022/09/17 01:06:31;;;;;;;15.80;3.30;;;10.90;99.90;;;;;;5020788;28;20014;-50
2022/09/17 01:09:32;;;;;;;13.82;2.88;;;10.90;99.90;;;;;;5019450;28;20026;-50
2022/09/17 01:12:18;;;;;;;10.88;2.83;;;10.90;99.90;;;;;;5019747;28;20392;-49
2022/09/17 01:15:01;;;;;;;12.20;2.83;;;10.80;99.90;;;;;;5023858;28;20056;-51
2022/09/17 01:17:35;;;;;;;12.65;2.90;;;10.80;99.90;;;;;;5018407;28;20046;-50
2022/09/17 01:20:30;;;;;;;15.57;4.03;;;10.80;99.90;;;;;;5029055;28;20094;-52
2022/09/17 01:23:37;;;;;;;18.83;3.33;;;10.70;99.90;;;;;;5019714;28;20158;-50
2022/09/17 01:26:15;;;;;;;12.43;2.92;;;10.70;99.90;;;;;;5022703;28;20488;-52
2022/09/17 01:29:12;;;;;;;20.20;3.78;;;10.70;99.90;;;;;;5018509;28;20033;-55
2022/09/17 01:31:53;;;;;;;7.38;2.17;;;10.70;99.90;;;;;;5027551;28;20025;-50
2022/09/17 01:34:55;;;;;;;13.00;2.83;;;10.70;99.90;;;;;;5013160;28;20018;-51
2022/09/17 01:37:58;;;;;;;8.45;2.85;;;10.70;99.90;;;;;;5012860;28;20033;-49
2022/09/17 01:40:34;;;;;;;13.27;2.67;;;10.70;99.90;;;;;;5010914;28;20044;-50
2022/09/17 01:43:14;;;;;;;17.25;3.70;;;10.60;99.90;;;;;;5020660;28;20025;-50
2022/09/17 01:45:52;;;;;;;17.08;3.05;;;10.60;99.90;;;;;;5018118;28;20125;-53
2022/09/17 01:48:23;;;;;;;10.07;2.92;;;10.70;99.90;;;;;;5012656;28;20022;-53
2022/09/17 01:50:54;;;;;;;15.65;2.88;;;10.60;99.90;;;;;;5027907;28;20021;-52
2022/09/17 01:53:24;;;;;;;15.07;3.17;;;10.60;99.90;;;;;;5020337;28;20204;-50
2022/09/17 01:55:52;;;;;;;9.57;2.15;;;10.60;99.90;;;;;;5022588;28;20025;-54
2022/09/17 01:58:24;;;;;;;10.10;2.85;;;10.60;99.90;;;;;;5023787;28;20013;-50
2022/09/17 02:00:56;;;;;;;12.13;3.05;;;10.60;99.90;;;;;;5023522;28;20033;-49
2022/09/17 02:03:30;;;;;;;12.20;2.30;;;10.50;99.90;;;;;;5023544;28;20028;-50
2022/09/17 02:06:10;;;;;;;9.88;2.17;;;10.50;99.90;;;;;;5022668;28;20024;-49
2022/09/17 02:08:45;;;;;;;8.68;3.15;;;10.50;99.90;;;;;;5025260;28;20017;-52
2022/09/17 02:11:16;;;;;;;7.53;2.40;;;10.50;99.90;;;;;;5019491;28;20026;-54
2022/09/17 02:13:58;;;;;;;8.65;2.08;;;10.40;99.90;;;;;;5026701;28;20112;-53
2022/09/17 02:16:27;;;;;;;10.13;1.73;;;10.40;99.90;;;;;;5016804;28;20446;-50
2022/09/17 02:19:12;;;;;;;10.15;1.75;;;10.40;99.90;;;;;;5023458;28;20117;-51
2022/09/17 02:21:58;;;;;;;5.85;1.88;;;10.40;99.90;;;;;;5022760;28;20510;-53
2022/09/17 02:24:25;;;;;;;;;;;10.40;99.90;;;;;;5010275;28;20018;-54
2022/09/17 02:27:11;;;;;;;;;;;10.30;99.90;;;;;;5022662;28;19910;-50
2022/09/17 02:29:40;;;;;;;7.88;1.40;;;10.30;99.90;;;;;;5022788;28;19905;-52
2022/09/17 02:32:06;;;;;;;14.45;3.33;;;10.30;99.90;;;;;;5022781;28;20033;-49
2022/09/17 02:34:33;;;;;;;16.80;1.95;;;10.30;99.90;;;;;;5023410;28;20488;-51
2022/09/17 02:36:58;;;;;;;14.60;2.83;;;10.30;99.90;;;;;;5021142;28;20113;-51
2022/09/17 02:39:24;;;;;;;15.60;2.72;;;10.30;99.90;;;;;;5023321;28;20176;-53
2022/09/17 02:42:16;;;;;;;13.23;2.90;;;10.30;99.90;;;;;;5021765;28;20026;-49
2022/09/17 02:44:54;;;;;;;8.57;2.00;;;10.30;99.90;;;;;;5023098;28;20491;-51
2022/09/17 02:47:25;;;;;;;8.55;1.95;;;10.30;99.90;;;;;;5022306;28;20033;-50
2022/09/17 02:49:56;;;;;;;10.10;2.47;;;10.30;99.90;;;;;;5022608;28;20088;-53
2022/09/17 02:52:40;;;;;;;9.35;1.27;;;10.30;99.90;;;;;;5019203;28;20566;-51
2022/09/17 02:55:12;;;;;;;10.07;2.75;;;10.30;99.90;;;;;;5027023;28;20021;-49
2022/09/17 02:57:59;;;;;;;12.90;1.85;;;10.30;99.90;;;;;;5019447;28;20026;-50
2022/09/17 03:00:27;;;;;;;7.25;1.95;;;10.30;99.90;;;;;;5019440;28;20045;-52
2022/09/17 03:03:00;;;;;;;7.38;1.48;;;10.30;99.90;;;;;;5019674;28;20072;-50
2022/09/17 03:05:27;;;;;;;8.60;1.95;;;10.30;99.90;;;;;;5022434;28;20127;-50
2022/09/17 03:07:58;;;;;;;8.18;1.95;;;10.30;99.90;;;;;;5020391;28;20018;-52
2022/09/17 03:10:23;;;;;;;9.95;2.40;;;10.30;99.90;;;;;;5022696;28;20026;-50
2022/09/17 03:12:51;;;;;;;13.23;2.78;;;10.30;99.90;;;;;;5003504;28;20028;-52
2022/09/17 03:15:16;;;;;;;14.52;2.78;;;10.30;99.90;;;;;;5022405;28;20018;-53
2022/09/17 03:17:42;;;;;;;12.50;2.38;;;10.30;99.90;;;;;;5002621;28;20044;-49
2022/09/17 03:20:08;;;;;;;16.40;2.63;;;10.30;99.90;;;;;;5021516;28;20080;-51
2022/09/17 03:22:34;;;;;;;8.30;2.08;;;10.30;99.90;;;;;;5022001;28;20033;-51
2022/09/17 03:25:00;;;;;;;13.35;3.15;;;10.30;99.90;;;;;;5020503;28;20020;-50
2022/09/17 03:27:25;;;;;;;10.63;2.20;;;10.40;99.90;;;;;;5022362;28;20033;-49
2022/09/17 03:29:51;;;;;;;12.48;2.08;;;10.40;99.90;;;;;;5003436;28;20022;-51
2022/09/17 03:32:16;;;;;;;8.55;2.50;;;10.40;99.90;;;;;;5022348;28;20480;-50
2022/09/17 03:34:42;;;;;;;13.23;2.80;;;10.40;99.90;;;;;;5020522;28;20476;-51
2022/09/17 03:37:07;;;;;;;16.90;2.58;;;10.40;99.90;;;;;;5020898;28;20032;-52
2022/09/17 03:39:33;;;;;;;13.55;2.63;;;10.40;99.90;;;;;;5021886;28;20525;-49
2022/09/17 03:41:59;;;;;;;6.15;2.10;;;10.40;99.90;;;;;;5019893;28;20392;-49
2022/09/17 03:44:24;;;;;;;8.88;1.80;;;10.40;99.90;;;;;;5004027;28;20061;-52
2022/09/17 03:46:50;;;;;;;13.45;2.70;;;10.40;99.90;;;;;;5020558;28;20025;-49
2022/09/17 03:49:16;;;;;;;9.50;1.60;;;10.40;99.90;;;;;;5022136;28;20137;-50
2022/09/17 03:51:42;;;;;;;8.18;2.45;;;10.40;99.90;;;;;;5019992;28;20032;-50
2022/09/17 03:54:08;;;;;;;12.02;2.00;;;10.30;99.90;;;;;;5021537;28;20034;-50
2022/09/17 03:56:33;;;;;;;14.07;2.63;;;10.30;99.90;;;;;;5021559;28;20021;-49
2022/09/17 03:59:00;;;;;;;14.20;3.08;;;10.30;99.90;;;;;;5021058;28;20036;-49
2022/09/17 04:01:27;;;;;;;12.18;2.63;;;10.40;99.90;;;;;;5021590;28;20038;-51
2022/09/17 04:03:52;;;;;;;15.32;3.58;;;10.40;99.90;;;;;;5021094;28;20025;-52
2022/09/17 04:06:18;;;;;;;11.77;2.30;;;10.50;99.90;;;;;;5019937;28;20444;-50
2022/09/17 04:08:44;;;;;;;6.32;1.55;;;10.50;99.90;;;;;;5003816;28;20026;-51
2022/09/17 04:11:09;;;;;;;19.17;2.80;;;10.50;99.90;;;;;;5020112;28;20428;-55
2022/09/17 04:13:35;;;;;;;13.73;2.95;;;10.50;99.90;;;;;;5021443;28;20021;-50
2022/09/17 04:16:01;;;;;;;8.60;3.17;;;10.50;99.90;;;;;;5020789;28;20025;-51
2022/09/17 04:18:27;;;;;;;11.95;2.40;;;10.60;99.90;;;;;;5003599;28;20109;-51
2022/09/17 04:20:52;;;;;;;17.02;3.72;;;10.60;99.90;;;;;;5020822;28;20101;-50
2022/09/17 04:23:18;;;;;;;11.65;2.25;;;10.60;99.90;;;;;;5020085;28;20018;-52
2022/09/17 04:25:44;;;;;;;15.30;2.58;;;10.60;99.90;;;;;;5021101;28;20033;-50
2022/09/17 04:28:10;;;;;;;16.77;2.75;;;10.60;99.90;;;;;;5020339;28;20093;-51
2022/09/17 04:30:35;;;;;;;10.73;2.13;;;10.60;99.90;;;;;;5003519;28;20030;-51
2022/09/17 04:33:01;;;;;;;13.90;2.75;;;10.60;99.90;;;;;;5019212;28;20022;-51
2022/09/17 04:35:27;;;;;;;8.80;2.20;;;10.70;99.90;;;;;;5020631;28;20026;-50
2022/09/17 04:37:54;;;;;;;11.93;1.98;;;10.60;99.90;;;;;;5020789;28;20040;-50
2022/09/17 04:40:21;;;;;;;12.52;2.67;;;10.70;99.90;;;;;;5020516;28;20025;-53
2022/09/17 04:42:47;;;;;;;10.50;3.50;;;10.70;99.90;;;;;;5021021;28;20025;-52
2022/09/17 04:45:12;;;;;;;7.35;2.05;;;10.70;99.90;;;;;;5020054;28;20025;-52
2022/09/17 04:47:38;;;;;;;14.82;2.47;;;10.70;99.90;;;;;;5023925;28;20021;-54
2022/09/17 04:50:05;;;;;;;17.23;2.67;;;10.70;99.90;;;;;;5023031;28;20018;-54
2022/09/17 04:52:30;;;;;;;10.82;2.92;;;10.60;99.90;;;;;;5020395;28;20026;-55
2022/09/17 04:54:56;;;;;;;14.70;2.55;;;10.60;99.90;;;;;;5029170;28;20442;-51
2022/09/17 04:57:24;;;;;;;13.50;2.55;;;10.60;99.90;;;;;;5021750;28;20037;-52
2022/09/17 04:59:50;;;;;;;9.98;2.30;;;10.50;99.90;;;;;;5029430;28;20056;-50
2022/09/17 05:02:15;;;;;;;13.73;3.08;;;10.50;99.90;;;;;;5021476;28;20487;-51
2022/09/17 05:04:41;;;;;;;12.15;3.15;;;10.50;99.90;;;;;;5021672;28;20026;-53
2022/09/17 05:07:06;;;;;;;9.38;2.58;;;10.50;99.90;;;;;;5010127;28;20030;-51
2022/09/17 05:09:32;;;;;;;10.70;2.00;;;10.50;99.90;;;;;;5021430;28;20183;-52
2022/09/17 05:11:57;;;;;;;7.75;2.03;;;10.50;99.90;;;;;;5028833;28;20048;-52
2022/09/17 05:14:23;;;;;;;11.13;2.20;;;10.50;99.90;;;;;;5021400;28;20092;-55
2022/09/17 05:16:48;;;;;;;13.98;2.35;;;10.50;99.90;;;;;;5029452;28;20044;-51
2022/09/17 05:19:15;;;;;;;6.75;2.28;;;10.40;99.90;;;;;;4994765;28;20022;-53
2022/09/17 05:21:40;;;;;;;11.52;2.80;;;10.40;99.90;;;;;;5021086;28;20049;-51
2022/09/17 05:24:06;;;;;;;10.73;2.08;;;10.50;99.90;;;;;;5027744;28;20040;-53
2022/09/17 05:26:31;;;;;;;9.75;2.78;;;10.40;99.90;;;;;;5021224;28;20097;-53
2022/09/17 05:28:57;;;;;;;17.25;2.25;;;10.50;99.90;;;;;;5028487;28;20026;-50
2022/09/17 05:31:22;;;;;;;17.02;2.72;;;10.50;99.90;;;;;;5020690;28;20480;-53
2022/09/17 05:33:48;;;;;;;15.93;3.75;;;10.50;99.90;;;;;;5021632;28;20026;-55
2022/09/17 05:36:13;;;;;;;7.30;1.95;;;10.50;99.90;;;;;;5026900;28;20018;-56
2022/09/17 05:38:39;;;;;;;15.02;2.67;;;10.50;99.90;;;;;;5021051;28;20099;-52
2022/09/17 05:41:05;;;;;;;10.70;2.97;;;10.50;99.90;;;;;;5009978;28;20120;-51
2022/09/17 05:43:31;;;;;;;15.35;2.72;;;10.50;99.90;;;;;;5020442;28;20033;-53
2022/09/17 05:46:01;;;;;;;17.95;2.53;;;10.50;99.90;;;;;;5028386;28;20021;-52
2022/09/17 05:48:27;;;;;;;11.65;2.42;;;10.50;99.90;;;;;;5020880;28;20022;-51
2022/09/17 05:50:54;;;;;;;17.58;3.10;;;10.60;99.90;;;;;;5021790;28;20025;-51
2022/09/17 05:53:20;;;;;;;14.13;2.40;;;10.60;99.90;;;;;;5023136;28;20484;-52
2022/09/17 05:55:45;;;;;;;6.55;2.25;;;10.60;99.90;;;;;;5023335;28;20104;-53
2022/09/17 05:58:13;;;;;;;15.30;2.58;;;10.60;99.90;;;;;;5022935;28;20060;-53
2022/09/17 06:00:40;;;;;;;7.57;1.83;;;10.60;99.90;;;;;;5025065;28;20536;-52
2022/09/17 06:03:07;;;;;;;10.95;3.17;;;10.60;99.90;;;;;;5022550;28;20030;-51
2022/09/17 06:05:32;;;;;;;10.98;2.10;;;10.60;99.90;;;;;;5023537;28;20021;-55
2022/09/17 06:07:58;;;;;;;6.97;1.85;;;10.60;99.90;;;;;;5022029;28;20018;-51
2022/09/17 06:10:24;;;;;;;12.88;2.28;;;10.60;99.90;;;;;;5023975;28;20017;-50
2022/09/17 06:12:55;;;;;;;15.73;2.05;;;10.60;99.90;;;;;;5022676;28;20057;-53
2022/09/17 06:15:20;;;;;;;11.48;2.05;;;10.60;99.90;;;;;;5024050;28;20075;-54
2022/09/17 06:17:46;;;;;;;10.00;2.40;;;10.60;99.90;;;;;;5023774;28;20038;-53
2022/09/17 06:20:12;;;;;;;7.75;2.13;;;10.60;99.90;;;;;;5023835;28;20476;-52
2022/09/17 06:22:37;;;;;;;16.45;2.78;;;10.60;99.90;;;;;;5005742;28;20037;-53
2022/09/17 06:25:03;;;;;;;10.15;2.50;;;10.60;99.90;;;;;;5022029;28;20065;-50
2022/09/17 06:27:31;;;;;;;12.23;2.83;;;10.60;99.90;;;;;;5023551;28;20039;-54
2022/09/17 06:29:57;;;;;;;12.23;2.72;;;10.60;99.90;;;;;;5022780;28;20026;-51
2022/09/17 06:32:23;;;;;;;8.93;2.92;;;10.60;99.90;;;;;;5023515;28;20398;-50
2022/09/17 06:34:48;;;;;;;10.88;2.13;;;10.60;99.90;;;;;;5021066;28;20026;-54
2022/09/17 06:37:14;;;;;;;5.30;1.42;;;10.50;99.90;;;;;;5010582;28;20022;-52
2022/09/17 06:39:39;;;;;;;9.48;2.35;;;10.50;99.90;;;;;;5023013;28;20368;-51
2022/09/17 06:42:05;;;;;;;9.48;1.98;;;10.50;99.90;;;;;;5021676;28;20105;-50
2022/09/17 06:44:31;;;;;;;7.13;1.65;;;10.50;99.90;;;;;;5023096;28;20095;-51
2022/09/17 06:46:56;;;;;;;7.65;1.83;;;10.40;99.90;;;;;;5022419;28;20072;-51
2022/09/17 06:49:23;;;;;;;11.70;2.25;;;10.40;99.90;;;;;;5023351;28;20045;-53
2022/09/17 06:51:48;;;;;;;9.60;1.00;;;10.40;99.90;;;;;;5020615;28;20025;-53
2022/09/17 06:54:14;;;;;;;6.18;1.70;;;10.40;99.90;;;;;;5020456;28;20382;-53
2022/09/17 06:56:40;;;;;;;6.68;1.25;;;10.30;99.90;;;;;;5023015;28;20480;-51
2022/09/17 06:59:05;;;;;;;9.32;1.30;;;10.30;99.90;;;;;;5039857;22;20339;-49
2022/09/17 07:01:31;;;;;;;5.80;1.08;;;10.30;99.90;;;;;;5023307;28;20060;-48
2022/09/17 07:03:57;;;;;;;4.20;1.10;;;10.40;99.90;;;;;;5040993;28;20480;-47
2022/09/17 07:06:23;;;;;;;6.97;1.42;;;10.50;99.90;;;;;;5041859;28;20036;-51
2022/09/17 07:08:48;;;;;;;5.32;2.05;;;10.50;99.90;;;;;;5042826;28;20028;-50
2022/09/17 07:11:15;;;;;;;4.70;1.58;;;10.60;99.90;;;;;;5020653;28;20211;-47
2022/09/17 07:13:40;;;;;;;8.70;1.85;;;10.70;99.90;;;;;;5024159;28;20027;-50
2022/09/17 07:16:06;;;;;;;3.05;1.20;;;10.90;99.90;;;;;;5041752;28;20160;-47
2022/09/17 07:18:32;;;;;;;6.03;1.00;;;11.10;99.90;;;;;;5041048;28;20444;-49
2022/09/17 07:21:00;;;;;;;4.10;1.15;;;11.30;99.90;;;;;;5043868;28;20020;-47
2022/09/17 07:23:31;;;;;;;3.90;0.98;;;11.30;99.90;;;;;;5023758;28;20033;-47
2022/09/17 07:25:59;;;;;;;5.72;0.95;;;11.40;99.90;;;;;;5040945;28;20494;-48
2022/09/17 07:28:25;;;;;;;3.92;1.23;;;11.50;99.90;;;;;;5042046;28;20024;-47
2022/09/17 07:30:52;;;;;;;2.80;1.10;;;11.50;99.90;;;;;;5024069;28;20419;-49
2022/09/17 07:33:22;;;;;;;2.85;0.93;;;11.60;99.90;;;;;;5020402;28;20044;-47
2022/09/17 07:35:59;;;;;;;3.00;0.98;;;11.80;99.90;;;;;;5043577;28;20272;-48
2022/09/17 07:38:27;;;;;;;1.75;0.50;;;11.90;99.90;;;;;;5035894;28;20409;-48
2022/09/17 07:40:57;;;;;;;4.88;0.68;;;11.90;99.90;;;;;;5026279;28;20483;-48
2022/09/17 07:43:28;;;;;;;2.60;0.70;;;12.10;99.90;;;;;;5037485;28;20104;-48
2022/09/17 07:45:55;;;;;;;6.43;1.30;;;12.10;99.90;;;;;;5030818;28;20068;-50
2022/09/17 07:48:21;;;;;;;1.83;0.60;;;12.00;99.90;;;;;;5039349;28;20049;-48
2022/09/17 07:50:47;;;;;;;3.05;0.50;;;12.00;99.90;;;;;;5020409;28;20053;-49
2022/09/17 07:53:12;;;;;;;3.58;1.10;;;12.00;99.90;;;;;;5027991;28;20017;-48
2022/09/17 07:55:38;;;;;;;2.72;0.47;;;12.00;99.90;;;;;;5041655;28;20032;-48
2022/09/17 07:58:04;;;;;;;3.75;0.82;;;12.00;99.90;;;;;;5039897;28;20109;-50
2022/09/17 08:00:30;;;;;;;4.43;1.48;;;12.00;99.90;;;;;;5023553;28;20254;-48
2022/09/17 08:02:56;;;;;;;3.33;0.60;;;12.00;99.90;;;;;;5040740;28;20029;-48
2022/09/17 08:05:23;;;;;;;5.15;1.50;;;12.10;99.90;;;;;;5023101;28;20540;-49
2022/09/17 08:07:53;;;;;;;3.33;1.10;;;12.20;99.90;;;;;;5022784;28;20120;-49
2022/09/17 08:10:21;;;;;;;4.38;1.00;;;12.40;99.90;;;;;;5032942;28;20021;-49
2022/09/17 08:12:54;;;;;;;3.33;0.77;;;12.50;99.90;;;;;;5040922;28;20070;-49
2022/09/17 08:15:20;;;;;;;4.40;1.40;;;12.60;99.90;;;;;;5039978;28;20340;-48
2022/09/17 08:17:46;;;;;;;4.03;1.00;;;12.80;99.90;;;;;;5040659;28;20033;-49
2022/09/17 08:20:13;;;;;;;6.53;1.33;;;12.90;99.90;;;;;;5019683;28;20383;-49
2022/09/17 08:22:39;;;;;;;4.97;0.70;;;13.00;99.90;;;;;;5041824;28;20494;-50
2022/09/17 08:25:06;;;;;;;3.13;0.73;;;13.10;99.90;;;;;;5038594;28;20110;-49
2022/09/17 08:27:32;;;;;;;6.22;1.20;;;13.10;99.90;;;;;;5041787;28;20159;-50
2022/09/17 08:29:57;;;;;;;9.88;1.10;;;13.20;99.90;;;;;;5039904;28;20025;-48
2022/09/17 08:32:24;;;;;;;2.53;0.50;;;13.30;99.90;;;;;;5041316;28;20028;-52
2022/09/17 08:34:49;;;;;;;3.45;0.90;;;13.40;99.90;;;;;;5040432;28;20033;-49
2022/09/17 08:37:15;;;;;;;3.85;0.57;;;13.40;99.90;;;;;;5037684;28;20026;-48
2022/09/17 08:39:41;;;;;;;9.57;1.05;;;13.40;99.90;;;;;;5042808;28;20450;-49
2022/09/17 08:42:25;;;;;;;3.10;1.05;;;13.60;99.90;;;;;;5041660;28;20521;-48
2022/09/17 08:44:52;;;;;;;3.88;1.33;;;13.60;99.90;;;;;;5026192;28;20047;-48
2022/09/17 08:47:26;;;;;;;3.70;1.00;;;13.70;99.90;;;;;;5019423;28;20022;-49
2022/09/17 08:49:57;;;;;;;3.15;1.17;;;13.80;99.90;;;;;;5044943;28;20032;-47
2022/09/17 08:52:44;;;;;;;5.22;1.10;;;13.80;99.90;;;;;;5036400;28;20018;-48
2022/09/17 08:55:14;;;;;;;5.85;1.00;;;13.80;99.90;;;;;;5039913;28;20384;-48
2022/09/17 08:58:18;;;;;;;8.02;1.42;;;13.70;99.90;;;;;;5040401;28;20021;-47
2022/09/17 09:01:02;;;;;;;2.90;0.90;;;13.50;99.90;;;;;;4976420;28;20137;-52
2022/09/17 09:03:39;;;;;;;5.45;1.20;;;13.40;99.90;;;;;;5022407;28;20112;-48
2022/09/17 09:06:05;;;;;;;4.63;1.00;;;13.10;99.90;;;;;;5037830;28;20403;-48
2022/09/17 09:08:40;;;;;;;3.17;1.10;;;13.00;99.90;;;;;;5023228;28;20074;-50
2022/09/17 09:11:21;;;;;;;3.78;0.73;;;12.90;99.90;;;;;;5039500;28;20017;-49
2022/09/17 09:13:51;;;;;;;5.15;1.25;;;12.80;99.90;;;;;;5025941;28;20074;-49
2022/09/17 09:16:26;;;;;;;5.78;1.73;;;12.70;99.90;;;;;;5015168;28;20029;-51
2022/09/17 09:18:54;;;;;;;7.03;1.10;;;12.70;99.90;;;;;;5044633;28;20032;-50
2022/09/17 09:21:25;;;;;;;3.50;1.33;;;12.80;99.90;;;;;;5036965;28;20503;-48
2022/09/17 09:24:08;;;;;;;4.88;1.15;;;12.60;99.90;;;;;;5037409;28;20113;-47
2022/09/17 09:26:54;;;;;;;2.83;0.40;;;12.60;99.90;;;;;;5040273;28;20100;-49
2022/09/17 09:29:28;;;;;;;3.37;0.57;;;12.40;99.90;;;;;;5026740;28;20033;-48
2022/09/17 09:32:01;;;;;;;2.97;1.13;;;12.30;99.90;;;;;;5038877;28;20249;-47
2022/09/17 09:34:28;;;;;;;4.97;0.85;;;12.20;99.90;;;;;;5024492;28;20056;-49
2022/09/17 09:37:12;;;;;;;2.22;0.60;;;12.20;99.90;;;;;;5043669;28;20387;-47
2022/09/17 09:39:40;;;;;;;1.02;0.17;;;12.30;99.90;;;;;;5025699;28;20025;-50
2022/09/17 09:42:29;;;;;;;0.75;0.20;;;12.30;99.90;;;;;;5041648;28;20017;-48
2022/09/17 09:45:01;;;;;;;12.88;0.82;;;12.40;99.90;;;;;;5031835;28;20045;-48
2022/09/17 09:47:47;;;;;;;1.15;0.22;;;12.50;99.90;;;;;;5038208;28;20060;-52
2022/09/17 09:50:41;;;;;;;3.92;0.30;;;12.60;99.90;;;;;;5022610;28;20091;-47
2022/09/17 09:53:45;;;;;;;1.27;0.63;;;12.70;99.90;;;;;;5046356;28;20021;-48
2022/09/17 09:57:02;;;;;;;2.08;0.22;;;12.90;99.90;;;;;;5042638;28;20490;-49
2022/09/17 09:59:28;;;;;;;4.03;0.40;;;12.90;99.90;;;;;;4958897;28;20063;-50
2022/09/17 10:01:54;;;;;;;3.83;0.63;;;13.00;99.90;;;;;;5038970;28;20091;-48
2022/09/17 10:04:26;;;;;;;0.93;0.32;;;13.00;99.90;;;;;;5039886;28;20025;-48
2022/09/17 10:07:04;;;;;;;2.03;0.63;;;13.10;99.90;;;;;;5022322;28;20087;-48
2022/09/17 10:09:33;;;;;;;2.42;0.38;;;13.10;99.90;;;;;;5048054;28;20017;-47
2022/09/17 10:12:05;;;;;;;2.80;0.65;;;13.20;99.90;;;;;;5023316;28;20017;-49
2022/09/17 10:14:37;;;;;;;6.80;1.00;;;13.10;99.90;;;;;;5044683;28;20025;-49
2022/09/17 10:17:38;;;;;;;4.68;0.63;;;13.20;99.90;;;;;;5041865;28;20040;-52
2022/09/17 10:20:11;;;;;;;4.35;0.90;;;13.20;99.90;;;;;;4961561;28;20485;-48
2022/09/17 10:22:43;;;;;;;2.42;0.45;;;13.20;99.90;;;;;;5030443;28;20128;-47
2022/09/17 10:25:31;;;;;;;2.85;0.55;;;13.20;99.90;;;;;;5041304;28;20025;-52
2022/09/17 10:28:00;;;;;;;2.28;0.65;;;13.10;99.90;;;;;;5042646;28;20060;-51
2022/09/17 10:30:26;;;;;;;6.47;0.77;;;13.10;99.90;;;;;;5037182;28;20028;-49
2022/09/17 10:33:16;;;;;;;3.60;1.00;;;13.10;99.90;;;;;;5042271;28;20028;-47
2022/09/17 10:35:58;;;;;;;5.45;0.65;;;13.10;99.90;;;;;;5042391;28;20044;-47
2022/09/17 10:38:28;;;;;;;5.20;1.27;;;13.00;99.90;;;;;;5035016;28;20116;-50
2022/09/17 10:41:09;;;;;;;1.02;0.40;;;13.00;99.90;;;;;;5040160;28;20033;-47
2022/09/17 10:43:35;;;;;;;3.35;1.25;;;13.10;99.90;;;;;;5042711;28;20057;-48
2022/09/17 10:46:01;;;;;;;4.32;0.88;;;13.20;99.90;;;;;;5041273;28;20118;-48
2022/09/17 10:48:33;;;;;;;4.20;1.08;;;13.10;99.90;;;;;;5044747;28;20494;-47
2022/09/17 10:51:01;;;;;;;4.90;1.00;;;13.20;99.90;;;;;;5022673;28;20025;-48
2022/09/17 10:53:28;;;;;;;8.70;0.82;;;13.10;99.90;;;;;;5028011;28;20395;-48
2022/09/17 10:56:07;;;;;;;2.72;0.73;;;13.10;99.90;;;;;;5041307;28;20498;-47
2022/09/17 10:58:50;;;;;;;6.20;1.13;;;13.10;99.90;;;;;;5042320;28;20036;-47
2022/09/17 11:01:22;;;;;;;3.22;0.80;;;13.10;99.90;;;;;;5040431;28;20028;-50
2022/09/17 11:03:57;;;;;;;4.15;0.68;;;13.10;99.90;;;;;;5043115;28;20570;-48
2022/09/17 11:07:00;;;;;;;7.65;1.52;;;13.20;99.90;;;;;;5036826;28;20052;-50
2022/09/17 11:09:45;;;;;;;1.50;0.60;;;13.30;99.90;;;;;;5034102;28;20553;-47
2022/09/17 11:12:39;;;;;;;2.08;0.57;;;13.30;99.90;;;;;;5041284;28;20108;-49
2022/09/17 11:15:51;;;;;;;4.25;0.80;;;13.20;99.90;;;;;;5040806;28;20056;-47
2022/09/17 11:18:56;;;;;;;2.30;0.75;;;13.10;99.90;;;;;;4960441;28;20030;-49
2022/09/17 11:21:37;;;;;;;2.47;0.70;;;13.00;99.90;;;;;;4930215;28;20117;-48
2022/09/17 11:24:02;;;;;;;1.48;0.80;;;13.00;99.90;;;;;;5031168;28;20093;-48
2022/09/17 11:26:48;;;;;;;3.10;1.25;;;13.00;99.90;;;;;;5042664;28;20053;-49
2022/09/17 11:29:34;;;;;;;2.05;0.93;;;13.00;99.90;;;;;;5026901;28;20009;-48
2022/09/17 11:32:18;;;;;;;5.15;1.02;;;12.90;99.90;;;;;;5040297;28;20033;-50
2022/09/17 11:35:02;;;;;;;3.47;1.20;;;13.00;99.90;;;;;;5024113;28;20029;-49
2022/09/17 11:38:02;;;;;;;3.88;0.70;;;13.10;99.90;;;;;;5035244;28;20040;-46
2022/09/17 11:40:50;;;;;;;2.70;0.80;;;13.20;99.90;;;;;;5037004;28;20069;-47
2022/09/17 11:43:19;;;;;;;4.00;0.70;;;13.30;99.90;;;;;;5031824;28;20025;-47
2022/09/17 11:46:16;;;;;;;3.55;0.70;;;13.40;99.90;;;;;;5034129;28;20381;-47
2022/09/17 11:49:31;;;;;;;0.93;0.50;;;13.40;99.90;;;;;;5033972;28;20091;-51
2022/09/17 11:52:05;;;;;;;3.35;1.00;;;13.50;99.90;;;;;;4938733;29;20062;-50
2022/09/17 11:54:41;;;;;;;2.78;0.88;;;13.50;99.90;;;;;;4939385;29;20039;-47
2022/09/17 11:57:15;;;;;;;2.95;0.70;;;13.60;99.90;;;;;;5004050;28;20087;-47
2022/09/17 12:00:00;;;;;;;3.67;0.88;;;13.80;99.90;;;;;;5037542;28;20060;-49
2022/09/17 12:02:55;;;;;;;3.92;0.80;;;13.90;99.90;;;;;;5013698;28;20044;-49
2022/09/17 12:05:20;;;;;;;4.18;0.93;;;14.00;99.90;;;;;;5018833;28;20040;-50
2022/09/17 12:07:56;;;;;;;1.88;0.82;;;14.10;99.90;;;;;;5039458;28;20017;-47
2022/09/17 12:10:28;;;;;;;2.63;0.80;;;14.20;99.90;;;;;;5030918;28;20013;-51
2022/09/17 12:13:01;;;;;;;3.17;1.02;;;14.20;99.90;;;;;;5039920;28;20071;-47
2022/09/17 12:15:31;;;;;;;2.17;1.02;;;14.20;99.90;;;;;;5041197;28;20399;-47
2022/09/17 12:18:22;;;;;;;3.80;0.80;;;14.30;99.90;;;;;;5040649;28;20037;-47
2022/09/17 12:20:52;;;;;;;5.63;1.10;;;14.40;99.90;;;;;;5023237;28;20029;-46
2022/09/17 12:23:37;;;;;;;5.68;1.58;;;14.60;99.90;;;;;;5034695;28;20018;-48
2022/09/17 12:26:37;;;;;;;5.68;1.23;;;14.60;99.90;;;;;;5043902;28;20047;-48
2022/09/17 12:29:21;;;;;;;4.40;1.30;;;14.70;99.90;;;;;;5037589;28;20123;-49
2022/09/17 12:32:13;;;;;;;3.95;1.30;;;14.70;99.90;;;;;;5039719;28;20024;-49
2022/09/17 12:35:02;;;;;;;4.00;1.27;;;14.50;99.90;;;;;;5033510;28;20083;-49
2022/09/17 12:37:49;;;;;;;7.68;1.80;;;14.40;99.90;;;;;;5024271;28;20437;-47
2022/09/17 12:40:27;;;;;;;6.05;1.10;;;14.40;99.90;;;;;;5034402;28;20056;-48
2022/09/17 12:43:27;;;;;;;4.85;1.13;;;14.40;99.90;;;;;;5043566;28;20505;-47
2022/09/17 12:45:59;;;;;;;6.30;1.17;;;14.50;99.90;;;;;;5017243;28;20029;-48
2022/09/17 12:49:02;;;;;;;4.35;0.98;;;14.60;99.90;;;;;;5043120;28;20025;-48
2022/09/17 12:51:40;;;;;;;4.57;1.30;;;14.70;99.90;;;;;;4960485;28;20056;-50
2022/09/17 12:54:32;;;;;;;5.57;1.00;;;14.80;99.90;;;;;;5040613;28;20048;-50
2022/09/17 12:57:10;;;;;;;4.20;1.05;;;14.80;99.90;;;;;;5042580;28;20027;-47
2022/09/17 13:00:02;;;;;;;6.85;1.40;;;14.90;99.90;;;;;;5053074;22;20507;-48
2022/09/17 13:02:38;;;;;;;5.97;1.33;;;14.90;99.90;;;;;;5000355;28;20038;-46
2022/09/17 13:05:34;;;;;;;2.55;0.93;;;14.90;99.90;;;;;;5018010;28;20030;-45
2022/09/17 13:08:24;;;;;;;5.78;1.10;;;14.90;99.90;;;;;;5018959;28;20381;-47
2022/09/17 13:11:05;;;;;;;7.22;1.73;;;14.80;99.90;;;;;;5024724;28;20025;-47
2022/09/17 13:13:59;;;;;;;4.38;1.52;;;14.70;99.90;;;;;;5019804;28;20021;-46